Dryfork, West Virginia
Current Conditions -  °F | °C
As of 9:55 PM on Friday 21 Nov 2014 (Local Time) from KW99 Reporting Station
Clear Clear  
Wind Chill: 22°   Ceiling: Unl
Heat Index: 22°   Visibility: 10mi
Dew Point: 14°   Wind: 0mph
Humidity: 72%   Direction: NA
Pressure: 30.5"   Gusts: NA
Location:  38.97°N, 79.5°W
Report Text: KW99 220255Z AUTO 00000KT 10SM CLR M06/M10 A3050 RMK AO2 T10571100
Loading
Personal Weather Stations






























Interactive Weather Map New forecast layout! Learn more

10-Day Weather Forecast

Advertisements
Track Severe Weather on mobile